sensor_id;sensor_type;location;lat;lon;timestamp;P1;durP1;ratioP1;P2;durP2;ratioP2
52724;SDS011;38621;52.830;6.914;2023-02-28T00:00:22;5.65;;;2.10;;
52724;SDS011;38621;52.830;6.914;2023-02-28T00:02:48;3.55;;;2.10;;
52724;SDS011;38621;52.830;6.914;2023-02-28T00:05:15;3.20;;;2.17;;
52724;SDS011;38621;52.830;6.914;2023-02-28T00:07:44;6.07;;;2.70;;
52724;SDS011;38621;52.830;6.914;2023-02-28T00:10:11;3.58;;;2.30;;
52724;SDS011;38621;52.830;6.914;2023-02-28T00:12:39;3.38;;;2.30;;
52724;SDS011;38621;52.830;6.914;2023-02-28T00:15:05;6.65;;;2.30;;
52724;SDS011;38621;52.830;6.914;2023-02-28T00:17:32;4.28;;;2.75;;
52724;SDS011;38621;52.830;6.914;2023-02-28T00:19:58;5.57;;;2.55;;
52724;SDS011;38621;52.830;6.914;2023-02-28T00:22:27;3.92;;;2.30;;
52724;SDS011;38621;52.830;6.914;2023-02-28T00:24:53;6.78;;;2.67;;
52724;SDS011;38621;52.830;6.914;2023-02-28T00:27:18;5.15;;;2.75;;
52724;SDS011;38621;52.830;6.914;2023-02-28T00:29:46;3.67;;;2.38;;
52724;SDS011;38621;52.830;6.914;2023-02-28T00:32:11;4.82;;;2.45;;
52724;SDS011;38621;52.830;6.914;2023-02-28T00:34:38;4.53;;;2.38;;
52724;SDS011;38621;52.830;6.914;2023-02-28T00:37:05;5.30;;;2.72;;
52724;SDS011;38621;52.830;6.914;2023-02-28T00:39:32;5.50;;;2.50;;
52724;SDS011;38621;52.830;6.914;2023-02-28T00:41:59;3.80;;;2.80;;
52724;SDS011;38621;52.830;6.914;2023-02-28T00:44:24;5.82;;;2.72;;
52724;SDS011;38621;52.830;6.914;2023-02-28T00:46:50;6.47;;;2.72;;
52724;SDS011;38621;52.830;6.914;2023-02-28T00:49:16;4.18;;;2.50;;
52724;SDS011;38621;52.830;6.914;2023-02-28T00:51:43;5.55;;;2.50;;
52724;SDS011;38621;52.830;6.914;2023-02-28T00:54:08;5.57;;;2.65;;
52724;SDS011;38621;52.830;6.914;2023-02-28T00:56:34;5.63;;;2.97;;
52724;SDS011;38621;52.830;6.914;2023-02-28T00:58:59;4.75;;;2.38;;
52724;SDS011;38621;52.830;6.914;2023-02-28T01:01:25;3.88;;;2.67;;
52724;SDS011;38621;52.830;6.914;2023-02-28T01:03:51;4.68;;;2.60;;
52724;SDS011;38621;52.830;6.914;2023-02-28T01:06:16;5.07;;;2.35;;
52724;SDS011;38621;52.830;6.914;2023-02-28T01:08:42;3.47;;;2.10;;
52724;SDS011;38621;52.830;6.914;2023-02-28T01:11:09;4.38;;;2.28;;
52724;SDS011;38621;52.830;6.914;2023-02-28T01:13:35;5.97;;;2.50;;
52724;SDS011;38621;52.830;6.914;2023-02-28T01:16:01;4.40;;;2.42;;
52724;SDS011;38621;52.830;6.914;2023-02-28T01:18:27;5.15;;;2.67;;
52724;SDS011;38621;52.830;6.914;2023-02-28T01:20:53;3.42;;;2.42;;
52724;SDS011;38621;52.830;6.914;2023-02-28T01:23:20;5.97;;;2.60;;
52724;SDS011;38621;52.830;6.914;2023-02-28T01:25:48;5.60;;;3.25;;
52724;SDS011;38621;52.830;6.914;2023-02-28T01:28:14;6.18;;;2.90;;
52724;SDS011;38621;52.830;6.914;2023-02-28T01:30:40;5.03;;;2.63;;
52724;SDS011;38621;52.830;6.914;2023-02-28T01:33:06;4.25;;;2.72;;
52724;SDS011;38621;52.830;6.914;2023-02-28T01:35:32;5.22;;;2.50;;
52724;SDS011;38621;52.830;6.914;2023-02-28T01:37:58;3.95;;;2.30;;
52724;SDS011;38621;52.830;6.914;2023-02-28T01:40:24;4.43;;;2.97;;
52724;SDS011;38621;52.830;6.914;2023-02-28T01:42:50;7.15;;;2.83;;
52724;SDS011;38621;52.830;6.914;2023-02-28T01:45:22;4.13;;;2.40;;
52724;SDS011;38621;52.830;6.914;2023-02-28T01:47:50;6.05;;;2.70;;
52724;SDS011;38621;52.830;6.914;2023-02-28T01:50:19;4.57;;;2.90;;
52724;SDS011;38621;52.830;6.914;2023-02-28T01:52:47;4.35;;;2.50;;
52724;SDS011;38621;52.830;6.914;2023-02-28T01:55:15;4.70;;;2.80;;
52724;SDS011;38621;52.830;6.914;2023-02-28T01:57:45;3.95;;;2.70;;
52724;SDS011;38621;52.830;6.914;2023-02-28T02:00:15;6.18;;;2.63;;
52724;SDS011;38621;52.830;6.914;2023-02-28T02:02:44;5.35;;;2.58;;
52724;SDS011;38621;52.830;6.914;2023-02-28T02:05:19;5.30;;;2.42;;
52724;SDS011;38621;52.830;6.914;2023-02-28T02:07:46;4.80;;;2.47;;
52724;SDS011;38621;52.830;6.914;2023-02-28T02:10:21;5.85;;;2.83;;
52724;SDS011;38621;52.830;6.914;2023-02-28T02:23:33;7.03;;;3.35;;
52724;SDS011;38621;52.830;6.914;2023-02-28T02:35:01;5.72;;;3.17;;
52724;SDS011;38621;52.830;6.914;2023-02-28T02:37:38;8.68;;;4.10;;
52724;SDS011;38621;52.830;6.914;2023-02-28T02:48:00;5.35;;;3.70;;
52724;SDS011;38621;52.830;6.914;2023-02-28T02:50:30;6.38;;;3.33;;
52724;SDS011;38621;52.830;6.914;2023-02-28T02:53:09;5.85;;;3.22;;
52724;SDS011;38621;52.830;6.914;2023-02-28T02:55:38;4.65;;;3.35;;
52724;SDS011;38621;52.830;6.914;2023-02-28T02:58:08;5.18;;;3.05;;
52724;SDS011;38621;52.830;6.914;2023-02-28T03:00:42;4.15;;;3.03;;
52724;SDS011;38621;52.830;6.914;2023-02-28T03:03:13;6.63;;;3.40;;
52724;SDS011;38621;52.830;6.914;2023-02-28T03:05:47;6.18;;;3.05;;
52724;SDS011;38621;52.830;6.914;2023-02-28T03:08:14;6.78;;;3.15;;
52724;SDS011;38621;52.830;6.914;2023-02-28T03:10:41;4.72;;;2.97;;
52724;SDS011;38621;52.830;6.914;2023-02-28T03:13:15;4.50;;;3.13;;
52724;SDS011;38621;52.830;6.914;2023-02-28T03:15:57;4.50;;;3.05;;
52724;SDS011;38621;52.830;6.914;2023-02-28T03:18:50;4.65;;;3.20;;
52724;SDS011;38621;52.830;6.914;2023-02-28T03:21:33;4.13;;;2.80;;
52724;SDS011;38621;52.830;6.914;2023-02-28T03:24:17;6.13;;;3.03;;
52724;SDS011;38621;52.830;6.914;2023-02-28T03:26:55;5.95;;;3.25;;
52724;SDS011;38621;52.830;6.914;2023-02-28T03:29:33;6.70;;;3.83;;
52724;SDS011;38621;52.830;6.914;2023-02-28T03:32:15;5.60;;;3.80;;
52724;SDS011;38621;52.830;6.914;2023-02-28T03:34:51;5.10;;;3.40;;
52724;SDS011;38621;52.830;6.914;2023-02-28T03:37:25;4.68;;;3.15;;
52724;SDS011;38621;52.830;6.914;2023-02-28T03:40:02;7.15;;;4.20;;
52724;SDS011;38621;52.830;6.914;2023-02-28T03:42:37;7.03;;;3.75;;
52724;SDS011;38621;52.830;6.914;2023-02-28T03:45:09;8.15;;;3.40;;
52724;SDS011;38621;52.830;6.914;2023-02-28T03:47:39;4.57;;;2.80;;
52724;SDS011;38621;52.830;6.914;2023-02-28T03:50:27;5.18;;;3.63;;
52724;SDS011;38621;52.830;6.914;2023-02-28T03:53:10;3.65;;;2.60;;
52724;SDS011;38621;52.830;6.914;2023-02-28T03:55:49;5.20;;;3.30;;
52724;SDS011;38621;52.830;6.914;2023-02-28T03:58:21;6.75;;;3.72;;
52724;SDS011;38621;52.830;6.914;2023-02-28T04:01:08;4.85;;;3.35;;
52724;SDS011;38621;52.830;6.914;2023-02-28T04:03:42;5.57;;;3.10;;
52724;SDS011;38621;52.830;6.914;2023-02-28T04:06:08;4.65;;;2.92;;
52724;SDS011;38621;52.830;6.914;2023-02-28T04:08:40;4.53;;;3.00;;
52724;SDS011;38621;52.830;6.914;2023-02-28T04:11:20;6.32;;;3.20;;
52724;SDS011;38621;52.830;6.914;2023-02-28T04:14:00;5.93;;;3.30;;
52724;SDS011;38621;52.830;6.914;2023-02-28T04:16:31;5.50;;;3.10;;
52724;SDS011;38621;52.830;6.914;2023-02-28T04:18:57;5.07;;;3.72;;
52724;SDS011;38621;52.830;6.914;2023-02-28T04:21:35;7.60;;;3.50;;
52724;SDS011;38621;52.830;6.914;2023-02-28T04:24:06;5.70;;;3.30;;
52724;SDS011;38621;52.830;6.914;2023-02-28T04:26:38;4.68;;;3.22;;
52724;SDS011;38621;52.830;6.914;2023-02-28T04:29:05;6.82;;;4.32;;
52724;SDS011;38621;52.830;6.914;2023-02-28T04:31:32;6.43;;;3.35;;
52724;SDS011;38621;52.830;6.914;2023-02-28T04:33:58;6.15;;;3.33;;
52724;SDS011;38621;52.830;6.914;2023-02-28T04:36:25;5.88;;;3.85;;
52724;SDS011;38621;52.830;6.914;2023-02-28T04:38:51;6.32;;;3.70;;
52724;SDS011;38621;52.830;6.914;2023-02-28T04:41:16;5.47;;;3.22;;
52724;SDS011;38621;52.830;6.914;2023-02-28T04:43:42;5.22;;;3.13;;
52724;SDS011;38621;52.830;6.914;2023-02-28T04:46:08;5.25;;;3.42;;
52724;SDS011;38621;52.830;6.914;2023-02-28T04:48:35;5.13;;;3.47;;
52724;SDS011;38621;52.830;6.914;2023-02-28T04:51:03;6.65;;;4.00;;
52724;SDS011;38621;52.830;6.914;2023-02-28T04:53:35;6.65;;;3.78;;
52724;SDS011;38621;52.830;6.914;2023-02-28T04:56:02;5.15;;;3.55;;
52724;SDS011;38621;52.830;6.914;2023-02-28T04:58:28;16.50;;;4.43;;
52724;SDS011;38621;52.830;6.914;2023-02-28T05:01:00;5.80;;;3.83;;
52724;SDS011;38621;52.830;6.914;2023-02-28T05:03:28;8.63;;;4.80;;
52724;SDS011;38621;52.830;6.914;2023-02-28T05:05:53;6.95;;;4.15;;
52724;SDS011;38621;52.830;6.914;2023-02-28T05:08:19;7.78;;;4.15;;
52724;SDS011;38621;52.830;6.914;2023-02-28T05:10:45;7.72;;;4.15;;
52724;SDS011;38621;52.830;6.914;2023-02-28T05:13:13;7.97;;;4.07;;
52724;SDS011;38621;52.830;6.914;2023-02-28T05:15:39;7.75;;;4.38;;
52724;SDS011;38621;52.830;6.914;2023-02-28T05:18:05;5.95;;;4.30;;
52724;SDS011;38621;52.830;6.914;2023-02-28T05:20:31;5.70;;;4.00;;
52724;SDS011;38621;52.830;6.914;2023-02-28T05:22:56;7.32;;;4.43;;
52724;SDS011;38621;52.830;6.914;2023-02-28T05:25:24;7.97;;;4.50;;
52724;SDS011;38621;52.830;6.914;2023-02-28T05:27:50;7.85;;;4.22;;
52724;SDS011;38621;52.830;6.914;2023-02-28T05:30:15;7.57;;;3.97;;
52724;SDS011;38621;52.830;6.914;2023-02-28T05:32:42;7.15;;;4.25;;
52724;SDS011;38621;52.830;6.914;2023-02-28T05:35:08;5.82;;;4.20;;
52724;SDS011;38621;52.830;6.914;2023-02-28T05:37:38;6.93;;;4.18;;
52724;SDS011;38621;52.830;6.914;2023-02-28T05:40:05;6.25;;;4.05;;
52724;SDS011;38621;52.830;6.914;2023-02-28T05:42:32;7.60;;;4.13;;
52724;SDS011;38621;52.830;6.914;2023-02-28T05:44:58;7.30;;;4.65;;
52724;SDS011;38621;52.830;6.914;2023-02-28T05:47:24;6.65;;;4.30;;
52724;SDS011;38621;52.830;6.914;2023-02-28T05:49:50;6.78;;;4.78;;
52724;SDS011;38621;52.830;6.914;2023-02-28T05:52:16;7.03;;;4.32;;
52724;SDS011;38621;52.830;6.914;2023-02-28T05:54:42;6.72;;;5.28;;
52724;SDS011;38621;52.830;6.914;2023-02-28T05:57:07;8.32;;;4.30;;
52724;SDS011;38621;52.830;6.914;2023-02-28T05:59:33;6.82;;;4.40;;
52724;SDS011;38621;52.830;6.914;2023-02-28T06:01:59;7.50;;;4.63;;
52724;SDS011;38621;52.830;6.914;2023-02-28T06:04:25;9.80;;;5.50;;
52724;SDS011;38621;52.830;6.914;2023-02-28T06:06:50;6.00;;;4.15;;
52724;SDS011;38621;52.830;6.914;2023-02-28T06:09:17;6.20;;;4.05;;
52724;SDS011;38621;52.830;6.914;2023-02-28T06:11:44;7.55;;;4.60;;
52724;SDS011;38621;52.830;6.914;2023-02-28T06:14:19;9.43;;;4.95;;
52724;SDS011;38621;52.830;6.914;2023-02-28T06:16:45;7.00;;;4.43;;
52724;SDS011;38621;52.830;6.914;2023-02-28T06:19:11;7.03;;;4.28;;
52724;SDS011;38621;52.830;6.914;2023-02-28T06:21:37;7.00;;;4.65;;
52724;SDS011;38621;52.830;6.914;2023-02-28T06:24:03;5.07;;;3.75;;
52724;SDS011;38621;52.830;6.914;2023-02-28T06:26:30;7.57;;;3.80;;
52724;SDS011;38621;52.830;6.914;2023-02-28T06:28:56;8.05;;;4.43;;
52724;SDS011;38621;52.830;6.914;2023-02-28T06:31:22;5.45;;;3.67;;
52724;SDS011;38621;52.830;6.914;2023-02-28T06:33:48;8.75;;;4.30;;
52724;SDS011;38621;52.830;6.914;2023-02-28T06:36:15;7.20;;;4.07;;
52724;SDS011;38621;52.830;6.914;2023-02-28T06:38:41;5.22;;;3.50;;
52724;SDS011;38621;52.830;6.914;2023-02-28T06:41:07;8.45;;;4.57;;
52724;SDS011;38621;52.830;6.914;2023-02-28T06:43:34;7.18;;;4.55;;
52724;SDS011;38621;52.830;6.914;2023-02-28T06:46:03;6.50;;;4.22;;
52724;SDS011;38621;52.830;6.914;2023-02-28T06:48:30;6.93;;;4.38;;
52724;SDS011;38621;52.830;6.914;2023-02-28T06:51:09;6.82;;;4.47;;
52724;SDS011;38621;52.830;6.914;2023-02-28T06:53:38;7.10;;;3.83;;
52724;SDS011;38621;52.830;6.914;2023-02-28T06:56:05;7.78;;;4.40;;
52724;SDS011;38621;52.830;6.914;2023-02-28T06:58:32;7.57;;;4.38;;
52724;SDS011;38621;52.830;6.914;2023-02-28T07:00:59;6.07;;;4.40;;
52724;SDS011;38621;52.830;6.914;2023-02-28T07:03:25;8.20;;;5.30;;
52724;SDS011;38621;52.830;6.914;2023-02-28T07:05:50;8.93;;;4.95;;
52724;SDS011;38621;52.830;6.914;2023-02-28T07:08:16;8.50;;;5.15;;
52724;SDS011;38621;52.830;6.914;2023-02-28T07:10:42;7.55;;;4.70;;
52724;SDS011;38621;52.830;6.914;2023-02-28T07:13:08;6.38;;;4.63;;
52724;SDS011;38621;52.830;6.914;2023-02-28T07:15:34;7.38;;;4.57;;
52724;SDS011;38621;52.830;6.914;2023-02-28T07:18:01;6.50;;;3.95;;
52724;SDS011;38621;52.830;6.914;2023-02-28T07:20:26;7.93;;;4.95;;
52724;SDS011;38621;52.830;6.914;2023-02-28T07:22:52;6.65;;;4.88;;
52724;SDS011;38621;52.830;6.914;2023-02-28T07:25:28;8.43;;;4.70;;
52724;SDS011;38621;52.830;6.914;2023-02-28T07:27:54;7.97;;;4.38;;
52724;SDS011;38621;52.830;6.914;2023-02-28T07:30:21;8.75;;;4.50;;
52724;SDS011;38621;52.830;6.914;2023-02-28T07:32:47;8.52;;;4.57;;
52724;SDS011;38621;52.830;6.914;2023-02-28T07:35:13;6.40;;;4.32;;
52724;SDS011;38621;52.830;6.914;2023-02-28T07:37:41;7.70;;;4.50;;
52724;SDS011;38621;52.830;6.914;2023-02-28T07:40:07;5.68;;;3.97;;
52724;SDS011;38621;52.830;6.914;2023-02-28T07:42:36;7.35;;;4.20;;
52724;SDS011;38621;52.830;6.914;2023-02-28T07:45:03;7.25;;;4.50;;
52724;SDS011;38621;52.830;6.914;2023-02-28T07:47:29;7.32;;;4.40;;
52724;SDS011;38621;52.830;6.914;2023-02-28T07:49:55;7.65;;;4.35;;
52724;SDS011;38621;52.830;6.914;2023-02-28T07:52:21;7.00;;;4.50;;
52724;SDS011;38621;52.830;6.914;2023-02-28T07:54:48;8.25;;;4.28;;
52724;SDS011;38621;52.830;6.914;2023-02-28T07:57:15;7.10;;;4.78;;
52724;SDS011;38621;52.830;6.914;2023-02-28T07:59:41;7.93;;;4.70;;
52724;SDS011;38621;52.830;6.914;2023-02-28T08:02:06;9.25;;;4.82;;
52724;SDS011;38621;52.830;6.914;2023-02-28T08:04:37;7.93;;;5.28;;
52724;SDS011;38621;52.830;6.914;2023-02-28T08:07:03;6.80;;;4.97;;
52724;SDS011;38621;52.830;6.914;2023-02-28T08:09:28;6.05;;;4.78;;
52724;SDS011;38621;52.830;6.914;2023-02-28T08:11:54;9.90;;;5.72;;
52724;SDS011;38621;52.830;6.914;2023-02-28T08:14:20;9.40;;;5.28;;
52724;SDS011;38621;52.830;6.914;2023-02-28T08:16:46;8.93;;;5.35;;
52724;SDS011;38621;52.830;6.914;2023-02-28T08:19:12;11.38;;;5.28;;
52724;SDS011;38621;52.830;6.914;2023-02-28T08:21:38;6.65;;;4.55;;
52724;SDS011;38621;52.830;6.914;2023-02-28T08:24:04;6.20;;;4.95;;
52724;SDS011;38621;52.830;6.914;2023-02-28T08:26:31;7.93;;;4.75;;
52724;SDS011;38621;52.830;6.914;2023-02-28T08:28:56;7.90;;;5.45;;
52724;SDS011;38621;52.830;6.914;2023-02-28T08:31:22;4.82;;;3.88;;
52724;SDS011;38621;52.830;6.914;2023-02-28T08:33:48;8.27;;;4.63;;
52724;SDS011;38621;52.830;6.914;2023-02-28T08:36:17;6.72;;;4.65;;
52724;SDS011;38621;52.830;6.914;2023-02-28T08:38:43;7.05;;;4.28;;
52724;SDS011;38621;52.830;6.914;2023-02-28T08:41:10;5.63;;;4.30;;
52724;SDS011;38621;52.830;6.914;2023-02-28T08:43:37;6.32;;;4.32;;
52724;SDS011;38621;52.830;6.914;2023-02-28T08:46:04;5.32;;;3.95;;
52724;SDS011;38621;52.830;6.914;2023-02-28T08:48:31;6.05;;;4.30;;
52724;SDS011;38621;52.830;6.914;2023-02-28T08:51:05;7.15;;;4.10;;
52724;SDS011;38621;52.830;6.914;2023-02-28T08:53:34;6.00;;;4.03;;
52724;SDS011;38621;52.830;6.914;2023-02-28T08:56:02;6.70;;;4.10;;
52724;SDS011;38621;52.830;6.914;2023-02-28T08:58:32;5.40;;;3.67;;
52724;SDS011;38621;52.830;6.914;2023-02-28T09:00:59;6.10;;;4.15;;
52724;SDS011;38621;52.830;6.914;2023-02-28T09:03:25;5.72;;;3.63;;
52724;SDS011;38621;52.830;6.914;2023-02-28T09:05:56;5.20;;;3.70;;
52724;SDS011;38621;52.830;6.914;2023-02-28T09:08:24;7.20;;;4.05;;
52724;SDS011;38621;52.830;6.914;2023-02-28T09:10:50;4.65;;;3.58;;
52724;SDS011;38621;52.830;6.914;2023-02-28T09:13:17;4.90;;;3.70;;
52724;SDS011;38621;52.830;6.914;2023-02-28T09:15:43;5.78;;;4.28;;
52724;SDS011;38621;52.830;6.914;2023-02-28T09:18:09;5.68;;;3.90;;
52724;SDS011;38621;52.830;6.914;2023-02-28T09:20:39;5.60;;;3.75;;
52724;SDS011;38621;52.830;6.914;2023-02-28T09:23:06;4.25;;;3.20;;
52724;SDS011;38621;52.830;6.914;2023-02-28T09:25:33;4.65;;;3.80;;
52724;SDS011;38621;52.830;6.914;2023-02-28T09:27:59;7.50;;;4.00;;
52724;SDS011;38621;52.830;6.914;2023-02-28T09:30:25;4.75;;;3.55;;
52724;SDS011;38621;52.830;6.914;2023-02-28T09:32:51;5.82;;;4.07;;
52724;SDS011;38621;52.830;6.914;2023-02-28T09:35:19;6.25;;;4.03;;
52724;SDS011;38621;52.830;6.914;2023-02-28T09:37:47;6.75;;;3.50;;
52724;SDS011;38621;52.830;6.914;2023-02-28T09:40:13;5.03;;;2.97;;
52724;SDS011;38621;52.830;6.914;2023-02-28T09:42:43;4.47;;;2.88;;
52724;SDS011;38621;52.830;6.914;2023-02-28T09:45:16;6.70;;;3.45;;
52724;SDS011;38621;52.830;6.914;2023-02-28T09:47:47;3.85;;;2.60;;
52724;SDS011;38621;52.830;6.914;2023-02-28T09:50:35;4.60;;;3.10;;
52724;SDS011;38621;52.830;6.914;2023-02-28T09:53:15;2.97;;;2.35;;
52724;SDS011;38621;52.830;6.914;2023-02-28T09:55:50;5.65;;;3.20;;
52724;SDS011;38621;52.830;6.914;2023-02-28T09:58:22;5.07;;;2.75;;
52724;SDS011;38621;52.830;6.914;2023-02-28T10:03:44;3.80;;;2.72;;
52724;SDS011;38621;52.830;6.914;2023-02-28T10:06:20;3.33;;;2.78;;
52724;SDS011;38621;52.830;6.914;2023-02-28T10:08:58;3.22;;;2.50;;
52724;SDS011;38621;52.830;6.914;2023-02-28T10:11:28;4.07;;;2.05;;
52724;SDS011;38621;52.830;6.914;2023-02-28T10:13:59;3.95;;;2.13;;
52724;SDS011;38621;52.830;6.914;2023-02-28T10:19:32;3.47;;;2.20;;
52724;SDS011;38621;52.830;6.914;2023-02-28T10:27:13;3.97;;;2.00;;
52724;SDS011;38621;52.830;6.914;2023-02-28T10:29:44;2.45;;;1.30;;
52724;SDS011;38621;52.830;6.914;2023-02-28T10:32:19;3.40;;;1.77;;
52724;SDS011;38621;52.830;6.914;2023-02-28T10:34:57;3.92;;;1.70;;
52724;SDS011;38621;52.830;6.914;2023-02-28T10:37:25;2.67;;;1.50;;
52724;SDS011;38621;52.830;6.914;2023-02-28T10:39:52;2.35;;;1.50;;
52724;SDS011;38621;52.830;6.914;2023-02-28T10:42:27;2.13;;;1.40;;
52724;SDS011;38621;52.830;6.914;2023-02-28T10:47:41;2.63;;;1.60;;
52724;SDS011;38621;52.830;6.914;2023-02-28T10:56:01;2.53;;;1.33;;
52724;SDS011;38621;52.830;6.914;2023-02-28T10:58:33;3.75;;;1.73;;
52724;SDS011;38621;52.830;6.914;2023-02-28T11:03:47;2.55;;;1.15;;
52724;SDS011;38621;52.830;6.914;2023-02-28T11:06:18;2.95;;;1.60;;
52724;SDS011;38621;52.830;6.914;2023-02-28T11:08:47;4.13;;;1.70;;
52724;SDS011;38621;52.830;6.914;2023-02-28T11:11:15;2.35;;;1.55;;
52724;SDS011;38621;52.830;6.914;2023-02-28T11:13:42;2.33;;;1.35;;
52724;SDS011;38621;52.830;6.914;2023-02-28T11:16:10;2.08;;;1.30;;
52724;SDS011;38621;52.830;6.914;2023-02-28T11:18:40;2.15;;;1.40;;
52724;SDS011;38621;52.830;6.914;2023-02-28T11:21:29;2.53;;;1.50;;
52724;SDS011;38621;52.830;6.914;2023-02-28T11:26:57;2.72;;;1.35;;
52724;SDS011;38621;52.830;6.914;2023-02-28T11:29:26;2.55;;;1.58;;
52724;SDS011;38621;52.830;6.914;2023-02-28T11:32:18;2.00;;;1.40;;
52724;SDS011;38621;52.830;6.914;2023-02-28T11:34:45;2.38;;;1.50;;
52724;SDS011;38621;52.830;6.914;2023-02-28T11:37:24;2.05;;;1.30;;
52724;SDS011;38621;52.830;6.914;2023-02-28T11:39:51;3.25;;;1.73;;
52724;SDS011;38621;52.830;6.914;2023-02-28T11:50:52;2.85;;;1.55;;
52724;SDS011;38621;52.830;6.914;2023-02-28T11:59:14;2.47;;;1.60;;
52724;SDS011;38621;52.830;6.914;2023-02-28T12:08:02;2.72;;;1.77;;
52724;SDS011;38621;52.830;6.914;2023-02-28T12:10:30;2.63;;;1.63;;
52724;SDS011;38621;52.830;6.914;2023-02-28T12:16:10;3.70;;;1.70;;
52724;SDS011;38621;52.830;6.914;2023-02-28T12:26:48;3.10;;;1.60;;
52724;SDS011;38621;52.830;6.914;2023-02-28T12:32:07;2.70;;;2.00;;
52724;SDS011;38621;52.830;6.914;2023-02-28T12:34:42;2.30;;;1.40;;
52724;SDS011;38621;52.830;6.914;2023-02-28T12:37:30;2.53;;;1.52;;
52724;SDS011;38621;52.830;6.914;2023-02-28T12:40:05;2.67;;;1.60;;
52724;SDS011;38621;52.830;6.914;2023-02-28T12:42:48;2.83;;;1.77;;
52724;SDS011;38621;52.830;6.914;2023-02-28T12:45:26;2.97;;;1.60;;
52724;SDS011;38621;52.830;6.914;2023-02-28T12:48:11;2.95;;;1.80;;
52724;SDS011;38621;52.830;6.914;2023-02-28T12:50:44;3.90;;;2.13;;
52724;SDS011;38621;52.830;6.914;2023-02-28T12:56:21;2.80;;;1.63;;
52724;SDS011;38621;52.830;6.914;2023-02-28T12:59:13;3.72;;;1.80;;
52724;SDS011;38621;52.830;6.914;2023-02-28T13:01:56;3.15;;;1.90;;
52724;SDS011;38621;52.830;6.914;2023-02-28T13:07:48;2.40;;;1.80;;
52724;SDS011;38621;52.830;6.914;2023-02-28T13:10:23;2.65;;;1.50;;
52724;SDS011;38621;52.830;6.914;2023-02-28T13:12:52;3.03;;;1.65;;
52724;SDS011;38621;52.830;6.914;2023-02-28T13:15:21;2.85;;;1.80;;
52724;SDS011;38621;52.830;6.914;2023-02-28T13:17:50;2.00;;;1.42;;
52724;SDS011;38621;52.830;6.914;2023-02-28T13:22:49;2.10;;;1.50;;
52724;SDS011;38621;52.830;6.914;2023-02-28T13:27:58;2.17;;;1.40;;
52724;SDS011;38621;52.830;6.914;2023-02-28T13:36:51;2.83;;;1.35;;
52724;SDS011;38621;52.830;6.914;2023-02-28T13:38:54;2.75;;;1.50;;
52724;SDS011;38621;52.830;6.914;2023-02-28T13:51:51;2.92;;;1.65;;
52724;SDS011;38621;52.830;6.914;2023-02-28T14:00:02;2.92;;;2.08;;
52724;SDS011;38621;52.830;6.914;2023-02-28T14:05:23;2.28;;;1.60;;
52724;SDS011;38621;52.830;6.914;2023-02-28T14:07:55;2.60;;;1.70;;
52724;SDS011;38621;52.830;6.914;2023-02-28T14:10:24;2.92;;;1.80;;
52724;SDS011;38621;52.830;6.914;2023-02-28T14:16:16;2.30;;;1.60;;
52724;SDS011;38621;52.830;6.914;2023-02-28T14:18:58;3.22;;;1.83;;
52724;SDS011;38621;52.830;6.914;2023-02-28T14:21:30;2.47;;;1.67;;
52724;SDS011;38621;52.830;6.914;2023-02-28T14:35:16;2.70;;;1.90;;
52724;SDS011;38621;52.830;6.914;2023-02-28T14:38:06;3.28;;;2.75;;
52724;SDS011;38621;52.830;6.914;2023-02-28T14:40:58;3.42;;;1.92;;
52724;SDS011;38621;52.830;6.914;2023-02-28T14:43:28;4.70;;;2.72;;
52724;SDS011;38621;52.830;6.914;2023-02-28T14:46:01;2.50;;;1.67;;
52724;SDS011;38621;52.830;6.914;2023-02-28T14:50:57;2.83;;;2.30;;
52724;SDS011;38621;52.830;6.914;2023-02-28T14:53:26;3.13;;;2.10;;
52724;SDS011;38621;52.830;6.914;2023-02-28T14:55:54;3.97;;;2.35;;
52724;SDS011;38621;52.830;6.914;2023-02-28T14:58:24;3.00;;;2.40;;
52724;SDS011;38621;52.830;6.914;2023-02-28T15:00:58;3.58;;;3.25;;
52724;SDS011;38621;52.830;6.914;2023-02-28T15:06:02;2.70;;;1.70;;
52724;SDS011;38621;52.830;6.914;2023-02-28T15:08:39;2.40;;;1.40;;
52724;SDS011;38621;52.830;6.914;2023-02-28T15:11:07;2.08;;;1.50;;
52724;SDS011;38621;52.830;6.914;2023-02-28T15:13:44;2.80;;;1.63;;
52724;SDS011;38621;52.830;6.914;2023-02-28T15:16:25;6.10;;;3.08;;
52724;SDS011;38621;52.830;6.914;2023-02-28T15:18:58;3.40;;;1.80;;
52724;SDS011;38621;52.830;6.914;2023-02-28T15:21:45;3.67;;;1.77;;
52724;SDS011;38621;52.830;6.914;2023-02-28T15:24:30;3.15;;;1.73;;
52724;SDS011;38621;52.830;6.914;2023-02-28T15:27:06;3.70;;;1.83;;
52724;SDS011;38621;52.830;6.914;2023-02-28T15:29:41;4.53;;;3.55;;
52724;SDS011;38621;52.830;6.914;2023-02-28T15:32:21;6.05;;;5.47;;
52724;SDS011;38621;52.830;6.914;2023-02-28T15:34:50;3.35;;;1.90;;
52724;SDS011;38621;52.830;6.914;2023-02-28T15:40:16;2.40;;;1.70;;
52724;SDS011;38621;52.830;6.914;2023-02-28T15:42:43;2.60;;;1.55;;
52724;SDS011;38621;52.830;6.914;2023-02-28T15:48:15;2.38;;;1.45;;
52724;SDS011;38621;52.830;6.914;2023-02-28T15:50:53;3.60;;;1.88;;
52724;SDS011;38621;52.830;6.914;2023-02-28T15:53:22;2.50;;;1.80;;
52724;SDS011;38621;52.830;6.914;2023-02-28T15:55:57;2.28;;;1.52;;
52724;SDS011;38621;52.830;6.914;2023-02-28T15:58:30;2.33;;;1.40;;
52724;SDS011;38621;52.830;6.914;2023-02-28T16:01:00;2.72;;;1.60;;
52724;SDS011;38621;52.830;6.914;2023-02-28T16:03:40;2.17;;;1.50;;
52724;SDS011;38621;52.830;6.914;2023-02-28T16:06:54;2.92;;;1.58;;
52724;SDS011;38621;52.830;6.914;2023-02-28T16:08:58;3.80;;;1.80;;
52724;SDS011;38621;52.830;6.914;2023-02-28T16:11:24;2.60;;;1.95;;
52724;SDS011;38621;52.830;6.914;2023-02-28T16:13:50;2.65;;;1.65;;
52724;SDS011;38621;52.830;6.914;2023-02-28T16:16:17;2.88;;;1.90;;
52724;SDS011;38621;52.830;6.914;2023-02-28T16:18:45;3.75;;;1.55;;
52724;SDS011;38621;52.830;6.914;2023-02-28T16:21:10;2.65;;;1.60;;
52724;SDS011;38621;52.830;6.914;2023-02-28T16:23:36;7.35;;;6.75;;
52724;SDS011;38621;52.830;6.914;2023-02-28T16:26:03;2.95;;;1.80;;
52724;SDS011;38621;52.830;6.914;2023-02-28T16:28:30;2.55;;;1.88;;
52724;SDS011;38621;52.830;6.914;2023-02-28T16:31:01;2.65;;;1.67;;
52724;SDS011;38621;52.830;6.914;2023-02-28T16:33:29;3.83;;;1.65;;
52724;SDS011;38621;52.830;6.914;2023-02-28T16:35:55;2.38;;;1.98;;
52724;SDS011;38621;52.830;6.914;2023-02-28T16:38:21;3.38;;;1.83;;
52724;SDS011;38621;52.830;6.914;2023-02-28T16:40:49;2.75;;;1.60;;
52724;SDS011;38621;52.830;6.914;2023-02-28T16:43:19;2.97;;;1.70;;
52724;SDS011;38621;52.830;6.914;2023-02-28T16:45:48;3.03;;;1.80;;
52724;SDS011;38621;52.830;6.914;2023-02-28T16:48:19;2.67;;;1.70;;
52724;SDS011;38621;52.830;6.914;2023-02-28T16:50:44;2.70;;;1.95;;
52724;SDS011;38621;52.830;6.914;2023-02-28T16:53:10;2.85;;;1.80;;
52724;SDS011;38621;52.830;6.914;2023-02-28T16:55:36;2.95;;;1.90;;
52724;SDS011;38621;52.830;6.914;2023-02-28T16:58:02;2.40;;;1.83;;
52724;SDS011;38621;52.830;6.914;2023-02-28T17:00:30;22.75;;;14.85;;
52724;SDS011;38621;52.830;6.914;2023-02-28T17:02:57;14.95;;;8.23;;
52724;SDS011;38621;52.830;6.914;2023-02-28T17:05:27;13.02;;;7.10;;
52724;SDS011;38621;52.830;6.914;2023-02-28T17:07:58;15.63;;;10.85;;
52724;SDS011;38621;52.830;6.914;2023-02-28T17:10:24;10.00;;;7.13;;
52724;SDS011;38621;52.830;6.914;2023-02-28T17:12:51;7.88;;;5.28;;
52724;SDS011;38621;52.830;6.914;2023-02-28T17:15:18;7.75;;;5.30;;
52724;SDS011;38621;52.830;6.914;2023-02-28T17:17:45;9.98;;;5.60;;
52724;SDS011;38621;52.830;6.914;2023-02-28T17:20:14;4.88;;;2.90;;
52724;SDS011;38621;52.830;6.914;2023-02-28T17:22:41;3.55;;;2.40;;
52724;SDS011;38621;52.830;6.914;2023-02-28T17:25:07;2.80;;;1.90;;
52724;SDS011;38621;52.830;6.914;2023-02-28T17:27:35;3.35;;;1.98;;
52724;SDS011;38621;52.830;6.914;2023-02-28T17:30:03;3.88;;;2.22;;
52724;SDS011;38621;52.830;6.914;2023-02-28T17:32:49;3.88;;;2.20;;